createdAt,value
2018-04-11T00:00:35.054Z,93.84
2018-04-11T00:01:43.108Z,93.94
2018-04-11T00:02:51.135Z,93.94
2018-04-11T00:03:59.218Z,93.08
2018-04-11T00:05:07.278Z,92.61
2018-04-11T00:06:15.349Z,92.80
2018-04-11T00:07:23.393Z,92.80
2018-04-11T00:08:31.432Z,92.90
2018-04-11T00:09:39.539Z,92.76
2018-04-11T00:10:47.583Z,93.27
2018-04-11T00:11:55.636Z,93.37
2018-04-11T00:13:03.694Z,93.23
2018-04-11T00:14:11.731Z,94.08
2018-04-11T00:15:19.828Z,93.51
2018-04-11T00:16:27.864Z,93.23
2018-04-11T00:17:35.923Z,93.32
2018-04-11T00:18:43.984Z,93.42
2018-04-11T00:19:52.052Z,93.42
2018-04-11T00:21:00.108Z,93.51
2018-04-11T00:22:08.158Z,93.89
2018-04-11T00:23:16.233Z,94.37
2018-04-11T00:24:24.285Z,94.18
2018-04-11T00:25:32.335Z,94.56
2018-04-11T00:26:40.415Z,94.27
2018-04-11T00:27:48.470Z,94.18
2018-04-11T00:28:56.513Z,93.23
2018-04-11T00:30:04.569Z,93.04
2018-04-11T00:31:12.630Z,93.42
2018-04-11T00:32:20.699Z,93.32
2018-04-11T00:33:28.758Z,93.89
2018-04-11T00:34:36.814Z,93.99
2018-04-11T00:35:44.850Z,94.08
2018-04-11T00:36:52.926Z,94.08
2018-04-11T00:38:00.988Z,94.46
2018-04-11T00:39:09.034Z,94.08
2018-04-11T00:40:17.087Z,94.84
2018-04-11T00:41:25.167Z,94.84
2018-04-11T00:42:33.198Z,94.74
2018-04-11T00:43:41.244Z,94.65
2018-04-11T00:44:49.327Z,94.37
2018-04-11T00:45:57.375Z,94.27
2018-04-11T00:47:05.454Z,94.46
2018-04-11T00:48:13.501Z,94.74
2018-04-11T00:49:21.537Z,94.74
2018-04-11T00:50:29.624Z,94.56
2018-04-11T00:51:37.674Z,94.46
2018-04-11T00:52:45.741Z,94.93
2018-04-11T00:53:53.793Z,94.84
2018-04-11T00:55:01.838Z,94.84
2018-04-11T00:56:09.920Z,94.74
2018-04-11T00:57:17.983Z,95.03
2018-04-11T00:58:26.018Z,95.12
2018-04-11T00:59:34.079Z,94.27
2018-04-11T01:00:42.132Z,94.74
2018-04-11T01:01:50.208Z,94.93
2018-04-11T01:02:58.257Z,94.56
2018-04-11T01:04:06.316Z,95.03
2018-04-11T01:05:14.383Z,94.93
2018-04-11T01:06:22.433Z,95.03
2018-04-11T01:07:30.503Z,94.74
2018-04-11T01:08:38.544Z,94.84
2018-04-11T01:09:46.613Z,94.93
2018-04-11T01:10:54.670Z,94.56
2018-04-11T01:12:02.719Z,95.50
2018-04-11T01:13:10.781Z,96.16
2018-04-11T01:14:18.833Z,96.45
2018-04-11T01:15:26.899Z,96.26
2018-04-11T01:16:34.947Z,96.35
2018-04-11T01:17:43.017Z,96.83
2018-04-11T01:18:51.049Z,95.78
2018-04-11T01:19:59.155Z,95.59
2018-04-11T01:21:07.187Z,94.93
2018-04-11T01:22:15.262Z,94.84
2018-04-11T01:23:23.303Z,95.78
2018-04-11T01:24:31.343Z,95.78
2018-04-11T01:25:39.438Z,96.26
2018-04-11T01:26:47.478Z,96.83
2018-04-11T01:27:55.532Z,96.64
2018-04-11T01:29:03.590Z,96.35
2018-04-11T01:30:11.619Z,96.54
2018-04-11T01:31:19.712Z,97.58
2018-04-11T01:32:27.776Z,97.96
2018-04-11T01:33:35.811Z,97.54
2018-04-11T01:34:43.897Z,96.73
2018-04-11T01:35:51.943Z,96.54
2018-04-11T01:37:00.022Z,96.16
2018-04-11T01:38:08.065Z,95.97
2018-04-11T01:39:16.118Z,96.07
2018-04-11T01:40:24.191Z,95.50
2018-04-11T01:41:32.228Z,95.40
2018-04-11T01:42:40.294Z,95.97
2018-04-11T01:43:48.350Z,96.16
2018-04-11T01:44:56.405Z,96.07
2018-04-11T01:46:04.469Z,96.07
2018-04-11T01:47:12.521Z,96.45
2018-04-11T01:48:20.581Z,96.45
2018-04-11T01:49:28.646Z,96.73
2018-04-11T01:50:36.699Z,96.45
2018-04-11T01:51:44.775Z,96.73
2018-04-11T01:52:52.814Z,95.88
2018-04-11T01:54:00.861Z,96.50
2018-04-11T01:55:08.943Z,96.64
2018-04-11T01:56:17.007Z,96.73
2018-04-11T01:57:25.045Z,96.54
2018-04-11T01:58:33.137Z,96.07
2018-04-11T01:59:41.136Z,95.31
2018-04-11T02:00:49.214Z,95.78
2018-04-11T02:01:57.285Z,95.78
2018-04-11T02:03:05.348Z,95.31
2018-04-11T02:04:13.400Z,95.40
2018-04-11T02:05:21.432Z,95.59
2018-04-11T02:06:29.521Z,95.69
2018-04-11T02:07:37.579Z,96.35
2018-04-11T02:08:45.625Z,95.97
2018-04-11T02:09:53.697Z,96.45
2018-04-11T02:11:01.736Z,95.97
2018-04-11T02:12:09.811Z,95.69
2018-04-11T02:13:17.877Z,95.78
2018-04-11T02:14:25.927Z,96.07
2018-04-11T02:15:33.982Z,95.78
2018-04-11T02:16:42.043Z,96.54
2018-04-11T02:17:50.097Z,96.45
2018-04-11T02:18:58.172Z,95.78
2018-04-11T02:20:06.207Z,95.97
2018-04-11T02:21:14.262Z,95.88
2018-04-11T02:22:22.334Z,95.59
2018-04-11T02:23:30.407Z,95.50
2018-04-11T02:24:38.448Z,95.59
2018-04-11T02:25:46.519Z,95.78
2018-04-11T02:26:54.564Z,95.69
2018-04-11T02:28:02.631Z,94.84
2018-04-11T02:29:10.675Z,95.17
2018-04-11T02:30:18.749Z,94.79
2018-04-11T02:31:26.798Z,96.12
2018-04-11T02:32:34.870Z,96.59
2018-04-11T02:33:42.911Z,96.69
2018-04-11T02:34:50.957Z,97.44
2018-04-11T02:35:59.029Z,97.44
2018-04-11T02:37:07.132Z,98.01
2018-04-11T02:38:15.149Z,97.25
2018-04-11T02:39:23.206Z,97.44
2018-04-11T02:40:31.230Z,97.30
2018-04-11T02:41:39.314Z,97.30
2018-04-11T02:42:47.375Z,97.30
2018-04-11T02:43:55.437Z,96.54
2018-04-11T02:45:03.494Z,96.92
2018-04-11T02:46:11.526Z,96.35
2018-04-11T02:47:19.599Z,96.83
2018-04-11T02:48:27.670Z,96.64
2018-04-11T02:49:35.720Z,96.26
2018-04-11T02:50:43.786Z,96.45
2018-04-11T02:51:51.826Z,96.54
2018-04-11T02:52:59.905Z,96.78
2018-04-11T02:54:07.951Z,96.59
2018-04-11T02:55:16.003Z,96.59
2018-04-11T02:56:24.070Z,96.31
2018-04-11T02:57:32.125Z,96.78
2018-04-11T02:58:40.201Z,96.97
2018-04-11T02:59:48.245Z,97.63
2018-04-11T03:00:56.303Z,96.59
2018-04-11T03:02:04.360Z,96.50
2018-04-11T03:03:12.418Z,96.21
2018-04-11T03:04:20.478Z,96.97
2018-04-11T03:05:28.537Z,97.16
2018-04-11T03:06:36.591Z,96.97
2018-04-11T03:07:44.653Z,97.16
2018-04-11T03:08:52.713Z,97.91
2018-04-11T03:10:00.770Z,98.29
2018-04-11T03:11:08.821Z,98.10
2018-04-11T03:12:16.895Z,97.16
2018-04-11T03:13:24.942Z,97.63
2018-04-11T03:14:32.994Z,97.16
2018-04-11T03:15:41.029Z,98.10
2018-04-11T03:16:49.118Z,97.63
2018-04-11T03:17:57.172Z,97.82
2018-04-11T03:19:05.238Z,98.01
2018-04-11T03:20:13.280Z,97.82
2018-04-11T03:21:21.320Z,98.01
2018-04-11T03:22:29.409Z,98.39
2018-04-11T03:23:37.454Z,98.29
2018-04-11T03:24:45.517Z,98.29
2018-04-11T03:25:53.574Z,98.48
2018-04-11T03:27:01.609Z,98.48
2018-04-11T03:28:09.703Z,97.91
2018-04-11T03:29:17.760Z,98.67
2018-04-11T03:30:25.805Z,97.82
2018-04-11T03:31:33.867Z,97.82
2018-04-11T03:32:41.936Z,97.72
2018-04-11T03:33:49.977Z,97.25
2018-04-11T03:34:58.047Z,98.67
2018-04-11T03:36:06.090Z,98.48
2018-04-11T03:37:14.147Z,98.48
2018-04-11T03:38:22.200Z,97.82
2018-04-11T03:39:30.262Z,98.01
2018-04-11T03:40:38.328Z,98.77
2018-04-11T03:41:46.404Z,98.29
2018-04-11T03:42:54.434Z,98.29
2018-04-11T03:44:02.493Z,98.10
2018-04-11T03:45:10.562Z,98.67
2018-04-11T03:46:18.624Z,97.91
2018-04-11T03:47:26.674Z,98.29
2018-04-11T03:48:34.733Z,98.01
2018-04-11T03:49:42.787Z,98.58
2018-04-11T03:50:50.835Z,98.77
2018-04-11T03:51:58.911Z,98.96
2018-04-11T03:53:06.970Z,98.48
2018-04-11T03:54:15.014Z,98.58
2018-04-11T03:55:23.082Z,98.53
2018-04-11T03:56:31.107Z,98.63
2018-04-11T03:57:39.187Z,98.53
2018-04-11T03:58:47.249Z,98.82
2018-04-11T03:59:55.311Z,98.34
2018-04-11T04:01:03.370Z,98.34
2018-04-11T04:02:11.429Z,98.48
2018-04-11T04:03:19.495Z,98.82
2018-04-11T04:04:27.534Z,99.38
2018-04-11T04:05:35.585Z,99.38
2018-04-11T04:06:43.652Z,97.96
2018-04-11T04:07:51.690Z,97.49
2018-04-11T04:08:59.776Z,96.54
2018-04-11T04:10:07.826Z,96.45
2018-04-11T04:11:15.894Z,96.45
2018-04-11T04:12:23.957Z,95.50
2018-04-11T04:13:31.998Z,95.12
2018-04-11T04:14:40.077Z,95.40
2018-04-11T04:15:48.122Z,96.07
2018-04-11T04:16:56.176Z,95.21
2018-04-11T04:18:04.238Z,94.84
2018-04-11T04:19:12.301Z,94.46
2018-04-11T04:20:20.374Z,94.84
2018-04-11T04:21:28.411Z,94.27
2018-04-11T04:22:36.475Z,94.84
2018-04-11T04:23:44.535Z,94.27
2018-04-11T04:24:52.617Z,94.56
2018-04-11T04:26:00.667Z,94.08
2018-04-11T04:27:08.708Z,94.84
2018-04-11T04:28:16.769Z,95.21
2018-04-11T04:29:24.821Z,95.21
2018-04-11T04:30:32.871Z,95.59
2018-04-11T04:31:40.923Z,95.50
2018-04-11T04:32:48.990Z,96.07
2018-04-11T04:33:57.055Z,96.07
2018-04-11T04:35:05.109Z,96.45
2018-04-11T04:36:13.183Z,96.45
2018-04-11T04:37:21.218Z,96.64
2018-04-11T04:38:29.303Z,96.64
2018-04-11T04:39:37.358Z,96.64
2018-04-11T04:40:45.407Z,96.35
2018-04-11T04:41:53.598Z,96.07
2018-04-11T04:43:01.490Z,96.26
2018-04-11T04:44:09.613Z,96.64
2018-04-11T04:45:17.646Z,97.30
2018-04-11T04:46:25.699Z,96.73
2018-04-11T04:47:33.768Z,96.64
2018-04-11T04:48:41.825Z,96.45
2018-04-11T04:49:49.882Z,96.73
2018-04-11T04:50:57.945Z,96.45
2018-04-11T04:52:05.997Z,96.07
2018-04-11T04:53:14.057Z,96.07
2018-04-11T04:54:22.098Z,96.45
2018-04-11T04:55:30.195Z,96.35
2018-04-11T04:56:38.699Z,96.64
2018-04-11T04:57:46.469Z,96.35
2018-04-11T04:58:54.346Z,97.68
2018-04-11T05:00:02.505Z,97.20
2018-04-11T05:01:10.469Z,97.11
2018-04-11T05:02:18.517Z,97.49
2018-04-11T05:03:26.584Z,98.06
2018-04-11T05:04:35.000Z,97.87
2018-04-11T05:05:42.706Z,97.87
2018-04-11T05:06:50.758Z,98.63
2018-04-11T05:07:58.810Z,98.53
2018-04-11T05:09:06.874Z,98.44
2018-04-11T05:10:14.928Z,97.96
2018-04-11T05:11:22.996Z,98.06
2018-04-11T05:12:31.034Z,98.15
2018-04-11T05:13:39.119Z,97.49
2018-04-11T05:14:47.175Z,97.77
2018-04-11T05:15:55.237Z,97.25
2018-04-11T05:17:03.303Z,98.15
2018-04-11T05:18:11.341Z,97.92
2018-04-11T05:19:19.390Z,98.11
2018-04-11T05:20:27.466Z,97.92
2018-04-11T05:21:35.510Z,97.92
2018-04-11T05:22:43.588Z,98.11
2018-04-11T05:23:52.242Z,97.73
2018-04-11T05:25:00.152Z,97.73
2018-04-11T05:26:07.768Z,97.06
2018-04-11T05:27:15.867Z,98.11
2018-04-11T05:28:23.898Z,97.44
2018-04-11T05:29:31.921Z,97.92
2018-04-11T05:30:39.999Z,97.92
2018-04-11T05:31:48.038Z,97.92
2018-04-11T05:32:56.115Z,96.59
2018-04-11T05:34:04.175Z,95.31
2018-04-11T05:35:12.241Z,95.69
2018-04-11T05:36:20.275Z,95.98
2018-04-11T05:37:28.347Z,96.17
2018-04-11T05:38:36.400Z,96.64
2018-04-11T05:39:44.468Z,95.88
2018-04-11T05:40:52.521Z,96.26
2018-04-11T05:42:00.600Z,96.07
2018-04-11T05:43:08.644Z,97.49
2018-04-11T05:44:16.712Z,97.78
2018-04-11T05:45:24.757Z,97.40
2018-04-11T05:46:32.829Z,97.49
2018-04-11T05:47:40.903Z,96.78
2018-04-11T05:48:48.948Z,96.78
2018-04-11T05:49:57.005Z,96.22
2018-04-11T05:51:05.060Z,95.93
2018-04-11T05:52:13.135Z,95.45
2018-04-11T05:53:21.166Z,95.07
2018-04-11T05:54:29.246Z,93.56
2018-04-11T05:55:37.299Z,90.67
2018-04-11T05:56:45.353Z,89.25
2018-04-11T05:57:53.410Z,89.25
2018-04-11T05:59:01.460Z,89.48
2018-04-11T06:00:09.535Z,89.00
2018-04-11T06:01:17.609Z,88.53
2018-04-11T06:02:25.661Z,88.43
2018-04-11T06:03:33.751Z,88.72
2018-04-11T06:04:41.764Z,89.20
2018-04-11T06:05:49.835Z,88.62
2018-04-11T06:06:57.907Z,87.39
2018-04-11T06:08:05.966Z,86.77
2018-04-11T06:09:14.008Z,86.77
2018-04-11T06:10:22.077Z,87.01
2018-04-11T06:11:30.147Z,86.77
2018-04-11T06:12:38.208Z,86.39
2018-04-11T06:13:46.267Z,86.87
2018-04-11T06:14:54.351Z,86.24
2018-04-11T06:16:02.400Z,85.68
2018-04-11T06:17:10.448Z,84.16
2018-04-11T06:18:18.528Z,82.68
2018-04-11T06:19:26.606Z,81.35
2018-04-11T06:20:34.654Z,79.77
2018-04-11T06:21:42.703Z,78.72
2018-04-11T06:22:50.802Z,78.91
2018-04-11T06:23:58.818Z,79.11
2018-04-11T06:25:06.887Z,79.58
2018-04-11T06:26:14.995Z,79.11
2018-04-11T06:27:23.024Z,78.82
2018-04-11T06:28:31.059Z,78.72
2018-04-11T06:29:39.159Z,78.19
2018-04-11T06:30:47.218Z,78.38
2018-04-11T06:31:55.288Z,76.96
2018-04-11T06:33:03.347Z,76.67
2018-04-11T06:34:11.386Z,76.81
2018-04-11T06:35:19.476Z,74.62
2018-04-11T06:36:27.520Z,74.14
2018-04-11T06:37:35.583Z,74.33
2018-04-11T06:38:43.661Z,74.80
2018-04-11T06:39:51.708Z,75.09
2018-04-11T06:40:59.786Z,74.62
2018-04-11T06:42:07.890Z,73.85
2018-04-11T06:43:15.968Z,73.89
2018-04-11T06:44:23.981Z,73.89
2018-04-11T06:45:32.054Z,73.51
2018-04-11T06:46:40.123Z,73.32
2018-04-11T06:47:48.173Z,73.13
2018-04-11T06:48:56.226Z,73.99
2018-04-11T06:50:04.298Z,73.70
2018-04-11T06:51:12.374Z,73.41
2018-04-11T06:52:20.431Z,73.32
2018-04-11T06:53:28.489Z,72.65
2018-04-11T06:54:36.568Z,71.36
2018-04-11T06:55:44.643Z,70.21
2018-04-11T06:56:52.717Z,70.72
2018-04-11T06:58:00.766Z,71.30
2018-04-11T06:59:08.859Z,70.72
2018-04-11T07:00:16.902Z,71.87
2018-04-11T07:01:24.972Z,69.68
2018-04-11T07:02:33.038Z,68.63
2018-04-11T07:03:41.074Z,69.96
2018-04-11T07:04:49.159Z,66.56
2018-04-11T07:05:57.224Z,66.78
2018-04-11T07:07:05.289Z,64.43
2018-04-11T07:08:13.358Z,63.42
2018-04-11T07:09:21.394Z,63.54
2018-04-11T07:10:29.499Z,56.88
2018-04-11T07:11:37.562Z,57.75
2018-04-11T07:12:45.632Z,60.58
2018-04-11T07:13:53.691Z,58.83
2018-04-11T07:15:01.748Z,58.64
2018-04-11T07:16:09.834Z,62.34
2018-04-11T07:17:17.899Z,63.26
2018-04-11T07:18:25.967Z,65.17
2018-04-11T07:19:34.093Z,68.41
2018-04-11T07:20:42.110Z,63.54
2018-04-11T07:21:50.172Z,64.47
2018-04-11T07:22:58.269Z,64.47
2018-04-11T07:24:06.310Z,66.38
2018-04-11T07:25:14.372Z,65.48
2018-04-11T07:26:22.447Z,60.64
2018-04-11T07:27:30.502Z,60.58
2018-04-11T07:28:38.570Z,61.35
2018-04-11T07:29:46.685Z,60.23
2018-04-11T07:30:54.715Z,57.84
2018-04-11T07:32:02.771Z,56.12
2018-04-11T07:33:10.841Z,59.40
2018-04-11T07:34:18.906Z,59.01
2018-04-11T07:35:27.006Z,62.62
2018-04-11T07:36:35.050Z,63.26
2018-04-11T07:37:43.128Z,62.21
2018-04-11T07:38:51.169Z,63.83
2018-04-11T07:39:59.260Z,64.75
2018-04-11T07:41:07.335Z,64.28
2018-04-11T07:42:15.428Z,65.61
2018-04-11T07:43:23.462Z,64.40
2018-04-11T07:44:31.533Z,62.01
2018-04-11T07:45:39.605Z,61.72
2018-04-11T07:46:47.691Z,58.73
2018-04-11T07:47:55.747Z,60.77
2018-04-11T07:49:03.810Z,56.69
2018-04-11T07:50:11.871Z,59.47
2018-04-11T07:51:19.970Z,61.47
2018-04-11T07:52:28.030Z,59.27
2018-04-11T07:53:36.095Z,57.75
2018-04-11T07:54:44.154Z,55.19
2018-04-11T07:55:52.233Z,53.85
2018-04-11T07:57:00.289Z,53.18
2018-04-11T07:58:08.373Z,51.46
2018-04-11T07:59:16.452Z,52.22
2018-04-11T08:00:24.520Z,51.27
2018-04-11T08:01:32.593Z,53.06
2018-04-11T08:02:40.655Z,54.23
2018-04-11T08:03:48.736Z,53.94
2018-04-11T08:04:56.798Z,54.59
2018-04-11T08:06:04.871Z,54.90
2018-04-11T08:07:12.965Z,56.62
2018-04-11T08:08:20.992Z,54.33
2018-04-11T08:09:29.096Z,51.07
2018-04-11T08:10:37.156Z,55.51
2018-04-11T08:11:45.220Z,51.29
2018-04-11T08:12:53.299Z,57.10
2018-04-11T08:14:01.401Z,57.77
2018-04-11T08:15:09.452Z,57.61
2018-04-11T08:16:17.580Z,52.54
2018-04-11T08:17:25.601Z,56.87
2018-04-11T08:18:33.656Z,56.68
2018-04-11T08:19:41.718Z,55.94
2018-04-11T08:20:49.796Z,52.97
2018-04-11T08:21:57.885Z,53.74
2018-04-11T08:23:05.943Z,50.58
2018-04-11T08:24:14.010Z,53.96
2018-04-11T08:25:22.088Z,47.25
2018-04-11T08:26:30.164Z,50.38
2018-04-11T08:27:38.243Z,53.26
2018-04-11T08:28:46.311Z,52.78
2018-04-11T08:29:54.405Z,52.97
2018-04-11T08:31:02.497Z,47.22
2018-04-11T08:32:10.519Z,46.65
2018-04-11T08:33:18.603Z,47.71
2018-04-11T08:34:26.670Z,52.20
2018-04-11T08:35:34.743Z,46.39
2018-04-11T08:36:42.815Z,44.56
2018-04-11T08:37:50.871Z,44.97
2018-04-11T08:38:58.970Z,47.08
2018-04-11T08:40:07.067Z,47.17
2018-04-11T08:41:15.108Z,46.05
2018-04-11T08:42:23.188Z,44.13
2018-04-11T08:43:31.250Z,42.00
2018-04-11T08:44:39.335Z,45.83
2018-04-11T08:45:47.385Z,40.94
2018-04-11T08:46:55.467Z,41.33
2018-04-11T08:48:03.545Z,44.76
2018-04-11T08:49:11.596Z,43.51
2018-04-11T08:50:19.688Z,40.81
2018-04-11T08:51:27.756Z,44.83
2018-04-11T08:52:35.875Z,44.23
2018-04-11T08:53:43.907Z,48.93
2018-04-11T08:54:51.981Z,44.52
2018-04-11T08:56:00.068Z,41.34
2018-04-11T08:57:08.130Z,45.07
2018-04-11T08:58:16.179Z,48.71
2018-04-11T08:59:24.272Z,45.84
2018-04-11T09:00:32.332Z,44.00
2018-04-11T09:01:40.401Z,49.35
2018-04-11T09:02:48.489Z,49.93
2018-04-11T09:03:56.543Z,47.06
2018-04-11T09:05:04.612Z,44.38
2018-04-11T09:06:12.699Z,44.74
2018-04-11T09:07:20.764Z,46.08
2018-04-11T09:08:28.837Z,46.75
2018-04-11T09:09:36.899Z,46.84
2018-04-11T09:10:44.957Z,45.31
2018-04-11T09:11:53.031Z,45.77
2018-04-11T09:13:01.079Z,43.50
2018-04-11T09:14:09.183Z,44.15
2018-04-11T09:15:17.253Z,45.98
2018-04-11T09:16:25.303Z,44.74
2018-04-11T09:17:33.382Z,46.84
2018-04-11T09:18:41.440Z,44.55
2018-04-11T09:19:49.525Z,47.13
2018-04-11T09:20:57.588Z,52.10
2018-04-11T09:22:05.650Z,52.10
2018-04-11T09:23:13.734Z,46.20
2018-04-11T09:24:21.793Z,44.38
2018-04-11T09:25:29.865Z,45.81
2018-04-11T09:26:37.931Z,44.31
2018-04-11T09:27:45.998Z,48.88
2018-04-11T09:28:54.062Z,45.45
2018-04-11T09:30:02.138Z,44.12
2018-04-11T09:31:10.208Z,44.31
2018-04-11T09:32:18.282Z,44.59
2018-04-11T09:33:26.364Z,46.31
2018-04-11T09:34:34.414Z,45.94
2018-04-11T09:35:42.507Z,44.59
2018-04-11T09:36:50.557Z,46.31
2018-04-11T09:37:58.615Z,42.11
2018-04-11T09:39:06.689Z,45.45
2018-04-11T09:40:14.762Z,43.37
2018-04-11T09:41:22.825Z,49.79
2018-04-11T09:42:30.886Z,45.19
2018-04-11T09:43:38.965Z,45.76
2018-04-11T09:44:47.034Z,47.01
2018-04-11T09:45:55.103Z,44.62
2018-04-11T09:47:03.277Z,43.08
2018-04-11T09:48:11.252Z,47.11
2018-04-11T09:49:19.300Z,41.94
2018-04-11T09:50:27.384Z,42.01
2018-04-11T09:51:35.446Z,45.17
2018-04-11T09:52:43.508Z,46.98
2018-04-11T09:53:51.557Z,40.86
2018-04-11T09:54:59.656Z,44.31
2018-04-11T09:56:07.710Z,46.03
2018-04-11T09:57:15.791Z,41.55
2018-04-11T09:58:23.848Z,41.36
2018-04-11T09:59:31.940Z,39.64
2018-04-11T10:00:39.986Z,40.86
2018-04-11T10:01:48.066Z,39.83
2018-04-11T10:02:56.118Z,41.46
2018-04-11T10:04:04.194Z,38.01
2018-04-11T10:05:12.265Z,37.43
2018-04-11T10:06:20.339Z,38.39
2018-04-11T10:07:28.403Z,41.27
2018-04-11T10:08:36.486Z,44.33
2018-04-11T10:09:44.547Z,43.56
2018-04-11T10:10:52.590Z,44.23
2018-04-11T10:12:00.686Z,38.70
2018-04-11T10:13:08.750Z,41.28
2018-04-11T10:14:16.820Z,43.68
2018-04-11T10:15:24.889Z,44.64
2018-04-11T10:16:32.974Z,45.31
2018-04-11T10:17:40.997Z,44.06
2018-04-11T10:18:49.089Z,45.12
2018-04-11T10:19:57.163Z,46.00
2018-04-11T10:21:05.238Z,44.85
2018-04-11T10:22:13.297Z,38.43
2018-04-11T10:23:21.349Z,36.98
2018-04-11T10:24:29.417Z,37.34
2018-04-11T10:25:37.507Z,38.01
2018-04-11T10:26:45.564Z,38.85
2018-04-11T10:27:53.650Z,39.16
2018-04-11T10:29:01.694Z,40.41
2018-04-11T10:30:09.761Z,39.25
2018-04-11T10:31:17.839Z,40.21
2018-04-11T10:32:25.909Z,40.69
2018-04-11T10:33:33.978Z,45.19
2018-04-11T10:34:42.046Z,47.58
2018-04-11T10:35:50.126Z,41.86
2018-04-11T10:36:58.207Z,46.17
2018-04-11T10:38:06.247Z,39.65
2018-04-11T10:39:14.310Z,38.89
2018-04-11T10:40:22.385Z,43.01
2018-04-11T10:41:30.464Z,39.75
2018-04-11T10:42:38.516Z,41.86
2018-04-11T10:43:46.603Z,39.75
2018-04-11T10:44:54.689Z,39.54
2018-04-11T10:46:02.727Z,41.07
2018-04-11T10:47:10.785Z,41.38
2018-04-11T10:48:18.871Z,39.37
2018-04-11T10:49:26.938Z,38.51
2018-04-11T10:50:35.002Z,39.92
2018-04-11T10:51:43.078Z,41.55
2018-04-11T10:52:51.172Z,43.76
2018-04-11T10:53:59.204Z,42.03
2018-04-11T10:55:07.274Z,43.47
2018-04-11T10:56:15.338Z,41.67
2018-04-11T10:57:23.414Z,40.71
2018-04-11T10:58:31.451Z,40.14
2018-04-11T10:59:39.540Z,39.37
2018-04-11T11:00:47.621Z,37.93
2018-04-11T11:01:55.678Z,43.39
2018-04-11T11:03:03.743Z,41.09
2018-04-11T11:04:11.828Z,44.26
2018-04-11T11:05:19.884Z,42.14
2018-04-11T11:06:27.946Z,41.78
2018-04-11T11:07:36.024Z,45.14
2018-04-11T11:08:44.077Z,43.13
2018-04-11T11:09:52.160Z,41.04
2018-04-11T11:11:00.216Z,38.74
2018-04-11T11:12:08.290Z,40.17
2018-04-11T11:13:16.352Z,46.60
2018-04-11T11:14:24.422Z,46.70
2018-04-11T11:15:32.497Z,39.23
2018-04-11T11:16:40.551Z,40.48
2018-04-11T11:17:48.623Z,44.13
2018-04-11T11:18:56.690Z,46.43
2018-04-11T11:20:04.756Z,43.74
2018-04-11T11:21:12.843Z,44.70
2018-04-11T11:22:20.882Z,41.16
2018-04-11T11:23:28.969Z,40.96
2018-04-11T11:24:37.040Z,40.29
2018-04-11T11:25:45.123Z,38.28
2018-04-11T11:26:53.164Z,40.56
2018-04-11T11:28:01.225Z,41.90
2018-04-11T11:29:09.306Z,44.51
2018-04-11T11:30:17.385Z,40.67
2018-04-11T11:31:25.440Z,43.27
2018-04-11T11:32:33.515Z,40.87
2018-04-11T11:33:41.556Z,42.69
2018-04-11T11:34:49.665Z,40.67
2018-04-11T11:35:57.727Z,45.09
2018-04-11T11:37:05.800Z,40.96
2018-04-11T11:38:13.855Z,39.53
2018-04-11T11:39:21.923Z,37.99
2018-04-11T11:40:29.993Z,41.54
2018-04-11T11:41:38.054Z,41.54
2018-04-11T11:42:46.127Z,45.09
2018-04-11T11:43:54.204Z,44.82
2018-04-11T11:45:02.277Z,42.90
2018-04-11T11:46:10.343Z,41.17
2018-04-11T11:47:18.409Z,39.45
2018-04-11T11:48:26.475Z,43.29
2018-04-11T11:49:34.538Z,39.26
2018-04-11T11:50:42.608Z,41.75
2018-04-11T11:51:50.721Z,39.26
2018-04-11T11:52:58.744Z,42.23
2018-04-11T11:54:06.814Z,39.45
2018-04-11T11:55:14.884Z,36.57
2018-04-11T11:56:22.953Z,37.24
2018-04-11T11:57:31.013Z,35.89
2018-04-11T11:58:39.089Z,33.78
2018-04-11T11:59:47.153Z,38.78
2018-04-11T12:00:55.227Z,38.68
2018-04-11T12:02:03.420Z,41.27
2018-04-11T12:03:11.359Z,39.93
2018-04-11T12:04:19.432Z,41.27
2018-04-11T12:05:27.505Z,41.08
2018-04-11T12:06:35.586Z,36.95
2018-04-11T12:07:43.642Z,39.45
2018-04-11T12:08:51.695Z,40.50
2018-04-11T12:09:59.779Z,41.37
2018-04-11T12:11:07.868Z,43.21
2018-04-11T12:12:15.911Z,38.12
2018-04-11T12:13:23.996Z,35.53
2018-04-11T12:14:32.061Z,38.89
2018-04-11T12:15:40.123Z,36.11
2018-04-11T12:16:48.196Z,35.14
2018-04-11T12:17:56.268Z,33.70
2018-04-11T12:19:04.345Z,39.35
2018-04-11T12:20:12.416Z,36.28
2018-04-11T12:21:20.463Z,37.64
2018-04-11T12:22:28.535Z,33.78
2018-04-11T12:23:36.609Z,32.73
2018-04-11T12:24:44.694Z,35.32
2018-04-11T12:25:54.179Z,34.84
2018-04-11T12:27:00.809Z,36.86
2018-04-11T12:28:08.898Z,36.18
2018-04-11T12:29:16.962Z,39.56
2018-04-11T12:30:25.024Z,33.42
2018-04-11T12:31:33.099Z,38.51
2018-04-11T12:32:41.157Z,36.30
2018-04-11T12:33:49.246Z,38.51
2018-04-11T12:34:57.304Z,37.84
2018-04-11T12:36:05.367Z,38.32
2018-04-11T12:37:13.485Z,38.41
2018-04-11T12:38:21.490Z,32.65
2018-04-11T12:39:29.588Z,37.55
2018-04-11T12:40:37.648Z,39.56
2018-04-11T12:41:45.712Z,38.41
2018-04-11T12:42:53.794Z,36.88
2018-04-11T12:44:01.847Z,38.60
2018-04-11T12:45:09.932Z,34.65
2018-04-11T12:46:17.994Z,36.09
2018-04-11T12:47:26.069Z,38.10
2018-04-11T12:48:34.148Z,34.73
2018-04-11T12:49:42.203Z,36.74
2018-04-11T12:50:50.277Z,39.81
2018-04-11T12:51:58.338Z,41.44
2018-04-11T12:53:06.413Z,40.99
2018-04-11T12:54:14.487Z,43.02
2018-04-11T12:55:22.550Z,40.72
2018-04-11T12:56:30.628Z,38.02
2018-04-11T12:57:38.693Z,35.43
2018-04-11T12:58:46.785Z,35.43
2018-04-11T12:59:54.812Z,35.05
2018-04-11T13:01:02.948Z,37.64
2018-04-11T13:02:10.956Z,38.51
2018-04-11T13:03:19.035Z,38.41
2018-04-11T13:04:27.114Z,39.39
2018-04-11T13:05:35.172Z,33.34
2018-04-11T13:06:43.252Z,32.28
2018-04-11T13:07:51.298Z,30.82
2018-04-11T13:08:59.385Z,30.73
2018-04-11T13:10:07.451Z,35.13
2018-04-11T13:11:15.508Z,35.22
2018-04-11T13:12:23.594Z,33.86
2018-04-11T13:13:31.643Z,34.84
2018-04-11T13:14:39.727Z,35.11
2018-04-11T13:15:47.815Z,37.60
2018-04-11T13:16:55.870Z,34.15
2018-04-11T13:18:03.963Z,35.30
2018-04-11T13:19:12.007Z,33.86
2018-04-11T13:20:20.097Z,34.82
2018-04-11T13:21:28.157Z,37.34
2018-04-11T13:22:36.219Z,37.53
2018-04-11T13:23:44.287Z,35.63
2018-04-11T13:24:52.359Z,33.70
2018-04-11T13:26:00.416Z,39.28
2018-04-11T13:27:08.499Z,38.89
2018-04-11T13:28:16.568Z,35.71
2018-04-11T13:29:24.643Z,35.03
2018-04-11T13:30:32.703Z,38.68
2018-04-11T13:31:40.797Z,39.16
2018-04-11T13:32:48.845Z,38.39
2018-04-11T13:33:56.913Z,35.71
2018-04-11T13:35:05.005Z,37.99
2018-04-11T13:36:13.056Z,37.80
2018-04-11T13:37:21.096Z,37.60
2018-04-11T13:38:29.212Z,36.74
2018-04-11T13:39:37.270Z,38.26
2018-04-11T13:40:45.334Z,37.03
2018-04-11T13:41:53.400Z,38.37
2018-04-11T13:43:01.444Z,37.13
2018-04-11T13:44:09.544Z,37.89
2018-04-11T13:45:17.610Z,37.87
2018-04-11T13:46:25.683Z,39.41
2018-04-11T13:47:33.752Z,39.70
2018-04-11T13:48:41.832Z,37.49
2018-04-11T13:49:49.890Z,37.49
2018-04-11T13:50:57.950Z,39.41
2018-04-11T13:52:06.017Z,39.22
2018-04-11T13:53:14.099Z,38.64
2018-04-11T13:54:22.162Z,42.29
2018-04-11T13:55:30.247Z,39.79
2018-04-11T13:56:38.344Z,40.94
2018-04-11T13:57:46.375Z,38.95
2018-04-11T13:58:54.435Z,38.45
2018-04-11T14:00:02.518Z,37.11
2018-04-11T14:01:10.579Z,36.05
2018-04-11T14:02:18.657Z,35.48
2018-04-11T14:03:26.717Z,35.67
2018-04-11T14:04:34.794Z,36.24
2018-04-11T14:05:42.850Z,40.94
2018-04-11T14:06:50.918Z,42.79
2018-04-11T14:07:58.993Z,39.23
2018-04-11T14:09:07.068Z,40.89
2018-04-11T14:10:15.112Z,40.89
2018-04-11T14:11:23.211Z,41.10
2018-04-11T14:12:31.270Z,42.06
2018-04-11T14:13:39.390Z,41.49
2018-04-11T14:14:47.411Z,40.81
2018-04-11T14:15:55.467Z,38.22
2018-04-11T14:17:03.631Z,37.74
2018-04-11T14:18:11.579Z,39.83
2018-04-11T14:19:19.681Z,41.20
2018-04-11T14:20:27.753Z,41.00
2018-04-11T14:21:35.817Z,40.62
2018-04-11T14:22:43.896Z,38.51
2018-04-11T14:23:51.965Z,39.18
2018-04-11T14:25:00.024Z,41.46
2018-04-11T14:26:08.109Z,41.29
2018-04-11T14:27:16.184Z,41.10
2018-04-11T14:28:24.227Z,41.39
2018-04-11T14:29:32.306Z,41.00
2018-04-11T14:30:40.372Z,41.58
2018-04-11T14:31:48.439Z,40.23
2018-04-11T14:32:56.516Z,41.00
2018-04-11T14:34:04.578Z,39.95
2018-04-11T14:35:12.665Z,38.96
2018-04-11T14:36:20.735Z,39.45